Back to Top

Language: 

My Weather Underground Personal Weather Station Historical Data with Graphs...

Delerius Weather Station Historical Data
Daily Summary for March 25, 2017 Units:  English    Metric   Both
« Previous Day
Next Day »
Daily Weekly Monthly Yearly Custom
  High: Low: Average:
Temperature: 60.4 °F 28.0 °F 43.7 °F
Dew Point: 39.8 °F 25.2 °F 30.6 °F
Humidity: 97 % 26 % 66 %
Wind Speed: 5.0 mph 0.0 mph 1 mph
Wind Gust: 15.0 mph - -
Wind:- - East
Pressure: 30.60 in 30.38 in -
Precipitation: 0.00 in    
Historical Graphs
 
 
Tabular Data for March 25, 2017
Time Temperature Dew Point Pressure Wind Wind Speed Wind Gust Humidity Rainfall Rate (Hourly) solar Conditions
00:00 33.3 °F 30.6 °F 30.60 in Calm     90 % 0.00 in 0 W/m2
00:05 33.1 °F 30.5 °F 30.60 in Calm     90 % 0.00 in 0 W/m2
00:11 33.1 °F 30.5 °F 30.59 in Calm     90 % 0.00 in 0 W/m2
00:16 32.9 °F 30.3 °F 30.60 in Calm     90 % 0.00 in 0 W/m2
00:21 32.7 °F 30.1 °F 30.59 in Calm     90 % 0.00 in 0 W/m2
00:26 32.5 °F 30.2 °F 30.60 in Calm     91 % 0.00 in 0 W/m2
00:31 32.5 °F 29.9 °F 30.60 in Calm     90 % 0.00 in 0 W/m2
00:36 32.4 °F 29.8 °F 30.59 in Calm   1.0 mph 90 % 0.00 in 0 W/m2
00:41 32.2 °F 29.6 °F 30.59 in Calm   1.0 mph 90 % 0.00 in 0 W/m2
00:46 32.0 °F 29.4 °F 30.59 in Calm   1.0 mph 90 % 0.00 in 0 W/m2
00:51 31.8 °F 29.2 °F 30.59 in Calm   1.0 mph 90 % 0.00 in 0 W/m2
00:56 31.6 °F 29.3 °F 30.59 in Calm     91 % 0.00 in 0 W/m2
00:58 31.6 °F 29.3 °F 30.59 in Calm     91 % 0.00 in 0 W/m2
01:03 31.6 °F 29.3 °F 30.59 in Calm     91 % 0.00 in 0 W/m2
01:08 31.6 °F 29.3 °F 30.59 in Calm     91 % 0.00 in 0 W/m2
01:13 31.5 °F 29.1 °F 30.59 in Calm     91 % 0.00 in 0 W/m2
01:18 31.5 °F 29.4 °F 30.59 in Calm     92 % 0.00 in 0 W/m2
01:23 31.3 °F 29.0 °F 30.59 in Calm     91 % 0.00 in 0 W/m2
01:28 31.3 °F 29.2 °F 30.59 in Calm     92 % 0.00 in 0 W/m2
01:33 31.3 °F 29.2 °F 30.59 in Calm     92 % 0.00 in 0 W/m2
01:34 31.5 °F 29.4 °F 30.59 in Calm     92 % 0.00 in 0 W/m2
01:39 31.3 °F 29.2 °F 30.59 in Calm     92 % 0.00 in 0 W/m2
01:44 31.1 °F 29.0 °F 30.59 in Calm     92 % 0.00 in 0 W/m2
01:49 30.9 °F 28.9 °F 30.58 in Calm   1.0 mph 92 % 0.00 in 0 W/m2
01:54 30.9 °F 28.9 °F 30.58 in Calm   1.0 mph 92 % 0.00 in 0 W/m2
01:59 30.9 °F 28.9 °F 30.58 in Calm   1.0 mph 92 % 0.00 in 0 W/m2
02:04 30.7 °F 28.7 °F 30.58 in Calm     92 % 0.00 in 0 W/m2
02:09 30.7 °F 28.7 °F 30.58 in Calm     92 % 0.00 in 0 W/m2
02:14 30.6 °F 28.5 °F 30.58 in Calm     92 % 0.00 in 0 W/m2
02:19 30.4 °F 28.3 °F 30.58 in Calm     92 % 0.00 in 0 W/m2
02:24 30.4 °F 28.6 °F 30.58 in Calm     93 % 0.00 in 0 W/m2
02:29 30.4 °F 28.6 °F 30.58 in Calm   2.0 mph 93 % 0.00 in 0 W/m2
02:34 30.4 °F 28.6 °F 30.57 in Calm   2.0 mph 93 % 0.00 in 0 W/m2
02:39 30.2 °F 28.4 °F 30.57 in Calm   1.0 mph 93 % 0.00 in 0 W/m2
02:44 30.0 °F 28.2 °F 30.57 in Calm   1.0 mph 93 % 0.00 in 0 W/m2
02:49 30.0 °F 28.2 °F 30.57 in Calm   1.0 mph 93 % 0.00 in 0 W/m2
02:54 30.0 °F 28.2 °F 30.57 in Calm     93 % 0.00 in 0 W/m2
02:59 30.0 °F 28.2 °F 30.57 in Calm   1.0 mph 93 % 0.00 in 0 W/m2
03:04 30.0 °F 28.2 °F 30.57 in Calm   1.0 mph 93 % 0.00 in 0 W/m2
03:05 30.0 °F 28.2 °F 30.57 in Calm   1.0 mph 93 % 0.00 in 0 W/m2
03:10 29.8 °F 28.1 °F 30.57 in Calm     93 % 0.00 in 0 W/m2
03:15 29.8 °F 28.1 °F 30.57 in Calm     93 % 0.00 in 0 W/m2
03:20 29.8 °F 28.1 °F 30.57 in Calm     93 % 0.00 in 0 W/m2
03:25 29.7 °F 27.9 °F 30.56 in Calm     93 % 0.00 in 0 W/m2
03:30 29.7 °F 27.9 °F 30.56 in Calm     93 % 0.00 in 0 W/m2
03:35 29.5 °F 27.7 °F 30.56 in Calm     93 % 0.00 in 0 W/m2
03:40 29.5 °F 28.0 °F 30.56 in Calm   1.0 mph 94 % 0.00 in 0 W/m2
03:45 29.5 °F 27.7 °F 30.56 in Calm   1.0 mph 93 % 0.00 in 0 W/m2
03:50 29.5 °F 27.7 °F 30.56 in Calm   1.0 mph 93 % 0.00 in 0 W/m2
03:55 29.3 °F 27.5 °F 30.56 in Calm     93 % 0.00 in 0 W/m2
04:00 29.1 °F 27.6 °F 30.56 in Calm     94 % 0.00 in 0 W/m2
04:05 29.5 °F 28.0 °F 30.56 in Calm   1.0 mph 94 % 0.00 in 0 W/m2
04:10 29.5 °F 28.0 °F 30.56 in Calm   1.0 mph 94 % 0.00 in 0 W/m2
04:15 29.3 °F 27.8 °F 30.56 in Calm     94 % 0.00 in 0 W/m2
04:20 29.3 °F 27.8 °F 30.56 in Calm     94 % 0.00 in 0 W/m2
04:25 29.1 °F 27.6 °F 30.55 in Calm     94 % 0.00 in 0 W/m2
04:30 29.1 °F 27.6 °F 30.55 in Calm     94 % 0.00 in 0 W/m2
04:35 28.9 °F 27.4 °F 30.55 in Calm     94 % 0.00 in 0 W/m2
04:40 28.8 °F 27.3 °F 30.55 in Calm     94 % 0.00 in 0 W/m2
04:45 28.8 °F 27.3 °F 30.55 in Calm     94 % 0.00 in 0 W/m2
04:50 28.6 °F 27.1 °F 30.55 in Calm     94 % 0.00 in 0 W/m2
04:55 28.6 °F 27.1 °F 30.55 in Calm     94 % 0.00 in 0 W/m2
05:00 28.6 °F 27.1 °F 30.55 in Calm     94 % 0.00 in 0 W/m2
05:05 28.6 °F 27.1 °F 30.55 in Calm     94 % 0.00 in 0 W/m2
05:10 28.6 °F 27.1 °F 30.55 in Calm     94 % 0.00 in 0 W/m2
05:15 28.6 °F 27.1 °F 30.55 in Calm     94 % 0.00 in 0 W/m2
05:20 28.4 °F 26.9 °F 30.55 in Calm   2.0 mph 94 % 0.00 in 0 W/m2
05:25 28.2 °F 26.7 °F 30.55 in Calm   2.0 mph 94 % 0.00 in 0 W/m2
05:30 28.2 °F 26.7 °F 30.55 in Calm     94 % 0.00 in 0 W/m2
05:35 28.2 °F 26.7 °F 30.55 in Calm     94 % 0.00 in 0 W/m2
05:40 28.4 °F 26.9 °F 30.55 in Calm     94 % 0.00 in 0 W/m2
05:45 28.4 °F 26.9 °F 30.55 in Calm   2.0 mph 94 % 0.00 in 0 W/m2
05:50 28.2 °F 26.7 °F 30.55 in Calm   2.0 mph 94 % 0.00 in 0 W/m2
05:56 28.2 °F 26.7 °F 30.55 in Calm   1.0 mph 94 % 0.00 in 0 W/m2
06:01 28.2 °F 26.7 °F 30.55 in Calm     94 % 0.00 in 0 W/m2
06:06 28.2 °F 26.7 °F 30.55 in Calm     94 % 0.00 in 5 W/m2
06:11 28.0 °F 26.5 °F 30.55 in Calm     94 % 0.00 in 9 W/m2
06:16 28.0 °F 26.8 °F 30.55 in Calm     95 % 0.00 in 11 W/m2
06:21 28.2 °F 27.0 °F 30.54 in Calm     95 % 0.00 in 12 W/m2
06:31 28.4 °F 27.2 °F 30.54 in Calm   1.0 mph 95 % 0.00 in 16 W/m2
06:41 28.6 °F 27.3 °F 30.54 in Calm     95 % 0.00 in 19 W/m2
06:46 28.6 °F 27.3 °F 30.54 in Calm     95 % 0.00 in 21 W/m2
06:51 28.6 °F 27.3 °F 30.54 in Calm     95 % 0.00 in 25 W/m2
06:56 28.6 °F 27.3 °F 30.55 in Calm     95 % 0.00 in 28 W/m2
07:01 28.8 °F 27.5 °F 30.54 in Calm     95 % 0.00 in 54 W/m2
07:06 29.1 °F 27.9 °F 30.55 in Calm     95 % 0.00 in 121 W/m2
07:11 29.8 °F 28.8 °F 30.55 in Calm     96 % 0.00 in 153 W/m2
07:16 30.9 °F 29.9 °F 30.55 in Calm     96 % 0.00 in 185 W/m2
07:21 32.2 °F 31.4 °F 30.55 in Calm     97 % 0.00 in 204 W/m2
07:26 33.3 °F 32.5 °F 30.55 in Calm     97 % 0.00 in 206 W/m2
07:32 34.2 °F 33.4 °F 30.55 in Calm     97 % 0.00 in 214 W/m2
07:37 34.5 °F 33.5 °F 30.55 in Calm     96 % 0.00 in 223 W/m2
07:42 35.1 °F 34.0 °F 30.55 in Calm     96 % 0.00 in 234 W/m2
07:47 35.4 °F 34.1 °F 30.55 in Calm     95 % 0.00 in 218 W/m2
07:52 36.0 °F 34.4 °F 30.55 in Calm     94 % 0.00 in 244 W/m2
08:02 36.9 °F 34.8 °F 30.55 in Calm     92 % 0.00 in 283 W/m2
08:07 37.4 °F 35.3 °F 30.55 in Calm     92 % 0.00 in 272 W/m2
08:12 37.9 °F 35.5 °F 30.55 in Calm     91 % 0.00 in 304 W/m2
08:17 38.5 °F 35.8 °F 30.55 in Calm     90 % 0.00 in 308 W/m2
08:22 39.4 °F 36.4 °F 30.55 in Calm     89 % 0.00 in 281 W/m2
08:27 40.5 °F 36.6 °F 30.55 in Calm     86 % 0.00 in 364 W/m2
08:32 41.4 °F 36.9 °F 30.55 in Calm     84 % 0.00 in 378 W/m2
08:37 42.3 °F 37.5 °F 30.55 in Calm     83 % 0.00 in 385 W/m2
08:42 43.0 °F 37.5 °F 30.55 in Calm     81 % 0.00 in 390 W/m2
08:47 43.5 °F 37.4 °F 30.55 in Calm     79 % 0.00 in 410 W/m2
08:52 44.4 °F 37.7 °F 30.55 in Calm     77 % 0.00 in 417 W/m2
08:57 45.0 °F 37.8 °F 30.55 in Calm     76 % 0.00 in 429 W/m2
09:02 45.7 °F 38.5 °F 30.55 in Calm   2.0 mph 76 % 0.00 in 450 W/m2
09:07 46.4 °F 38.9 °F 30.55 in ENE 1.0 mph 4.0 mph 75 % 0.00 in 454 W/m2
09:12 47.1 °F 39.3 °F 30.55 in ENE 1.0 mph 4.0 mph 74 % 0.00 in 468 W/m2
09:17 47.7 °F 39.8 °F 30.55 in Calm   2.0 mph 74 % 0.00 in 483 W/m2
09:22 48.4 °F 39.4 °F 30.55 in ENE 1.0 mph 3.0 mph 71 % 0.00 in 496 W/m2
09:27 48.7 °F 39.0 °F 30.56 in ENE 1.0 mph 4.0 mph 69 % 0.00 in 508 W/m2
09:32 49.1 °F 39.0 °F 30.56 in ENE 1.0 mph 4.0 mph 68 % 0.00 in 526 W/m2
09:37 49.3 °F 38.4 °F 30.55 in SE 1.0 mph 5.0 mph 66 % 0.00 in 536 W/m2
09:42 49.3 °F 38.4 °F 30.55 in SE 1.0 mph 5.0 mph 66 % 0.00 in 550 W/m2
09:47 49.5 °F 38.2 °F 30.55 in SSE 1.0 mph 5.0 mph 65 % 0.00 in 557 W/m2
09:52 49.5 °F 38.2 °F 30.55 in South 1.0 mph 5.0 mph 65 % 0.00 in 557 W/m2
09:57 49.8 °F 38.5 °F 30.54 in South 1.0 mph 6.0 mph 65 % 0.00 in 571 W/m2
10:02 50.4 °F 38.2 °F 30.55 in SSE 2.0 mph 6.0 mph 63 % 0.00 in 582 W/m2
10:07 50.9 °F 38.3 °F 30.55 in SSE 2.0 mph 6.0 mph 62 % 0.00 in 591 W/m2
10:12 51.1 °F 37.2 °F 30.55 in SE 1.0 mph 6.0 mph 59 % 0.00 in 592 W/m2
10:17 51.4 °F 38.0 °F 30.54 in SE 2.0 mph 6.0 mph 60 % 0.00 in 603 W/m2
10:23 52.0 °F 37.2 °F 30.54 in SSE 1.0 mph 6.0 mph 57 % 0.00 in 603 W/m2
10:28 52.2 °F 36.5 °F 30.54 in SE 2.0 mph 5.0 mph 55 % 0.00 in 608 W/m2
10:33 52.5 °F 36.3 °F 30.54 in SE 2.0 mph 5.0 mph 54 % 0.00 in 613 W/m2
10:38 52.9 °F 34.7 °F 30.54 in SE 2.0 mph 6.0 mph 50 % 0.00 in 619 W/m2
10:43 52.9 °F 33.7 °F 30.54 in SE 3.0 mph 6.0 mph 48 % 0.00 in 610 W/m2
10:48 52.9 °F 33.7 °F 30.54 in SE 2.0 mph 5.0 mph 48 % 0.00 in 605 W/m2
10:53 53.2 °F 34.0 °F 30.53 in ESE 1.0 mph 7.0 mph 48 % 0.00 in 615 W/m2
10:58 53.6 °F 34.4 °F 30.53 in East 1.0 mph 7.0 mph 48 % 0.00 in 619 W/m2
11:03 54.0 °F 34.2 °F 30.53 in East 1.0 mph 6.0 mph 47 % 0.00 in 650 W/m2
11:08 54.1 °F 32.1 °F 30.53 in East 2.0 mph 6.0 mph 43 % 0.00 in 666 W/m2
11:13 54.1 °F 33.8 °F 30.53 in East 2.0 mph 6.0 mph 46 % 0.00 in 677 W/m2
11:18 54.3 °F 31.7 °F 30.53 in ESE 3.0 mph 6.0 mph 42 % 0.00 in 666 W/m2
11:23 54.3 °F 31.1 °F 30.53 in ESE 3.0 mph 6.0 mph 41 % 0.00 in 621 W/m2
11:28 54.7 °F 34.8 °F 30.52 in ESE 3.0 mph 7.0 mph 47 % 0.00 in 682 W/m2
11:33 55.0 °F 34.6 °F 30.52 in ESE 2.0 mph 7.0 mph 46 % 0.00 in 684 W/m2
11:38 55.2 °F 33.7 °F 30.52 in ESE 1.0 mph 7.0 mph 44 % 0.00 in 689 W/m2
11:43 55.6 °F 31.6 °F 30.51 in ENE 2.0 mph 7.0 mph 40 % 0.00 in 689 W/m2
11:53 55.4 °F 30.8 °F 30.51 in NE 3.0 mph 7.0 mph 39 % 0.00 in 698 W/m2
11:58 55.8 °F 31.2 °F 30.51 in ENE 3.0 mph 6.0 mph 39 % 0.00 in 698 W/m2
12:03 56.1 °F 31.5 °F 30.51 in East 1.0 mph 6.0 mph 39 % 0.00 in 689 W/m2
12:08 56.5 °F 31.8 °F 30.50 in East 2.0 mph 6.0 mph 39 % 0.00 in 698 W/m2
12:13 56.7 °F 30.0 °F 30.50 in East 3.0 mph 6.0 mph 36 % 0.00 in 693 W/m2
12:18 57.0 °F 32.3 °F 30.50 in East 2.0 mph 6.0 mph 39 % 0.00 in 696 W/m2
12:23 57.2 °F 29.8 °F 30.50 in East 2.0 mph 6.0 mph 35 % 0.00 in 694 W/m2
12:28 57.4 °F 29.2 °F 30.50 in East 2.0 mph 6.0 mph 34 % 0.00 in 691 W/m2
12:33 57.6 °F 30.1 °F 30.49 in ESE 3.0 mph 7.0 mph 35 % 0.00 in 677 W/m2
12:38 57.7 °F 31.6 °F 30.49 in ESE 3.0 mph 7.0 mph 37 % 0.00 in 694 W/m2
12:43 57.9 °F 30.4 °F 30.49 in East 3.0 mph 7.0 mph 35 % 0.00 in 694 W/m2
12:48 57.9 °F 26.6 °F 30.48 in ESE 5.0 mph 10.0 mph 30 % 0.00 in 622 W/m2
12:53 57.9 °F 29.7 °F 30.48 in ESE 4.0 mph 10.0 mph 34 % 0.00 in 689 W/m2
12:58 58.1 °F 29.1 °F 30.48 in ESE 3.0 mph 7.0 mph 33 % 0.00 in 687 W/m2
13:03 57.9 °F 30.4 °F 30.48 in ESE 2.0 mph 7.0 mph 35 % 0.00 in 684 W/m2
13:08 58.5 °F 32.3 °F 30.48 in ESE 3.0 mph 9.0 mph 37 % 0.00 in 680 W/m2
13:14 58.8 °F 31.2 °F 30.47 in ESE 4.0 mph 11.0 mph 35 % 0.00 in 647 W/m2
13:19 59.2 °F 30.8 °F 30.47 in East 3.0 mph 11.0 mph 34 % 0.00 in 666 W/m2
13:24 59.2 °F 30.1 °F 30.47 in East 2.0 mph 5.0 mph 33 % 0.00 in 654 W/m2
13:29 59.2 °F 30.8 °F 30.46 in SE 3.0 mph 15.0 mph 34 % 0.00 in 631 W/m2
13:34 58.8 °F 29.7 °F 30.47 in ESE 5.0 mph 15.0 mph 33 % 0.00 in 636 W/m2
13:39 58.6 °F 28.8 °F 30.46 in ENE 4.0 mph 9.0 mph 32 % 0.00 in 642 W/m2
13:44 58.8 °F 27.4 °F 30.46 in East 3.0 mph 8.0 mph 30 % 0.00 in 631 W/m2
13:49 58.6 °F 28.8 °F 30.45 in East 4.0 mph 9.0 mph 32 % 0.00 in 490 W/m2
13:54 58.5 °F 27.9 °F 30.45 in ENE 3.0 mph 9.0 mph 31 % 0.00 in 584 W/m2
14:04 58.8 °F 29.0 °F 30.45 in ESE 4.0 mph 8.0 mph 32 % 0.00 in 610 W/m2
14:09 59.2 °F 30.1 °F 30.44 in ESE 2.0 mph 8.0 mph 33 % 0.00 in 585 W/m2
14:14 59.5 °F 28.0 °F 30.44 in East 3.0 mph 8.0 mph 30 % 0.00 in 548 W/m2
14:19 59.4 °F 27.9 °F 30.44 in East 3.0 mph 8.0 mph 30 % 0.00 in 547 W/m2
14:24 59.5 °F 28.0 °F 30.43 in East 3.0 mph 6.0 mph 30 % 0.00 in 554 W/m2
14:29 59.7 °F 29.0 °F 30.43 in East 3.0 mph 7.0 mph 31 % 0.00 in 550 W/m2
14:34 59.7 °F 28.2 °F 30.43 in East 3.0 mph 7.0 mph 30 % 0.00 in 557 W/m2
14:39 60.1 °F 28.5 °F 30.43 in ESE 3.0 mph 7.0 mph 30 % 0.00 in 541 W/m2
14:44 60.1 °F 28.5 °F 30.43 in East 3.0 mph 7.0 mph 30 % 0.00 in 543 W/m2
14:49 60.3 °F 27.8 °F 30.43 in East 2.0 mph 7.0 mph 29 % 0.00 in 527 W/m2
14:54 60.3 °F 27.0 °F 30.42 in ESE 3.0 mph 9.0 mph 28 % 0.00 in 492 W/m2
14:59 60.3 °F 27.0 °F 30.42 in East 4.0 mph 9.0 mph 28 % 0.00 in 403 W/m2
15:04 60.4 °F 26.3 °F 30.42 in East 3.0 mph 9.0 mph 27 % 0.00 in 394 W/m2
15:09 60.3 °F 26.1 °F 30.42 in East 4.0 mph 9.0 mph 27 % 0.00 in 373 W/m2
15:14 60.3 °F 25.2 °F 30.42 in East 3.0 mph 9.0 mph 26 % 0.00 in 438 W/m2
15:19 60.3 °F 27.0 °F 30.41 in East 3.0 mph 9.0 mph 28 % 0.00 in 418 W/m2
15:24 60.1 °F 27.7 °F 30.41 in East 4.0 mph 8.0 mph 29 % 0.00 in 410 W/m2
15:29 60.1 °F 26.8 °F 30.41 in East 3.0 mph 8.0 mph 28 % 0.00 in 399 W/m2
15:34 59.9 °F 25.8 °F 30.41 in East 3.0 mph 7.0 mph 27 % 0.00 in 360 W/m2
15:39 59.7 °F 25.6 °F 30.41 in East 3.0 mph 7.0 mph 27 % 0.00 in 396 W/m2
15:44 59.7 °F 25.6 °F 30.41 in East 2.0 mph 6.0 mph 27 % 0.00 in 388 W/m2
15:49 59.9 °F 25.8 °F 30.41 in East 2.0 mph 6.0 mph 27 % 0.00 in 366 W/m2
15:54 60.1 °F 26.8 °F 30.40 in East 2.0 mph 7.0 mph 28 % 0.00 in 348 W/m2
15:59 59.9 °F 26.7 °F 30.40 in East 2.0 mph 7.0 mph 28 % 0.00 in 297 W/m2
16:04 59.7 °F 27.4 °F 30.40 in East 3.0 mph 7.0 mph 29 % 0.00 in 325 W/m2
16:10 59.5 °F 28.0 °F 30.39 in East 2.0 mph 7.0 mph 30 % 0.00 in 320 W/m2
16:15 59.5 °F 27.2 °F 30.39 in ESE 3.0 mph 9.0 mph 29 % 0.00 in 304 W/m2
16:20 59.5 °F 28.8 °F 30.39 in ESE 5.0 mph 9.0 mph 31 % 0.00 in 274 W/m2
16:25 59.2 °F 26.9 °F 30.39 in ESE 5.0 mph 9.0 mph 29 % 0.00 in 271 W/m2
16:30 59.2 °F 26.9 °F 30.39 in ESE 5.0 mph 10.0 mph 29 % 0.00 in 264 W/m2
16:35 58.8 °F 27.4 °F 30.39 in ESE 5.0 mph 10.0 mph 30 % 0.00 in 232 W/m2
16:40 58.8 °F 26.6 °F 30.39 in East 4.0 mph 9.0 mph 29 % 0.00 in 237 W/m2
16:45 59.0 °F 26.8 °F 30.39 in ESE 4.0 mph 9.0 mph 29 % 0.00 in 209 W/m2
16:50 58.8 °F 26.6 °F 30.39 in ESE 4.0 mph 11.0 mph 29 % 0.00 in 211 W/m2
16:55 58.6 °F 27.3 °F 30.38 in East 4.0 mph 11.0 mph 30 % 0.00 in 197 W/m2
17:00 58.5 °F 27.9 °F 30.39 in East 3.0 mph 9.0 mph 31 % 0.00 in 185 W/m2
17:05 58.3 °F 27.7 °F 30.39 in ENE 3.0 mph 8.0 mph 31 % 0.00 in 151 W/m2
17:10 58.1 °F 28.4 °F 30.39 in ENE 3.0 mph 8.0 mph 32 % 0.00 in 137 W/m2
17:15 57.7 °F 28.8 °F 30.39 in ENE 3.0 mph 7.0 mph 33 % 0.00 in 137 W/m2
17:21 57.6 °F 29.4 °F 30.39 in ENE 3.0 mph 7.0 mph 34 % 0.00 in 123 W/m2
17:26 57.4 °F 29.2 °F 30.39 in East 2.0 mph 7.0 mph 34 % 0.00 in 100 W/m2
17:31 57.4 °F 28.5 °F 30.39 in East 3.0 mph 9.0 mph 33 % 0.00 in 63 W/m2
17:36 56.8 °F 28.0 °F 30.39 in ENE 3.0 mph 9.0 mph 33 % 0.00 in 58 W/m2
17:41 56.5 °F 28.4 °F 30.39 in ENE 2.0 mph 7.0 mph 34 % 0.00 in 47 W/m2
17:46 56.1 °F 28.1 °F 30.39 in ENE 2.0 mph 5.0 mph 34 % 0.00 in 47 W/m2
17:51 55.9 °F 28.7 °F 30.39 in ENE 2.0 mph 5.0 mph 35 % 0.00 in 39 W/m2
17:56 55.6 °F 28.3 °F 30.39 in ENE 1.0 mph 5.0 mph 35 % 0.00 in 30 W/m2
18:01 55.4 °F 28.2 °F 30.39 in ENE 1.0 mph 5.0 mph 35 % 0.00 in 21 W/m2
18:06 55.0 °F 28.5 °F 30.39 in ENE 1.0 mph 4.0 mph 36 % 0.00 in 16 W/m2
18:11 54.9 °F 29.1 °F 30.39 in ENE 1.0 mph 4.0 mph 37 % 0.00 in 12 W/m2
18:16 54.5 °F 28.7 °F 30.39 in Calm   3.0 mph 37 % 0.00 in 9 W/m2
18:21 54.1 °F 29.1 °F 30.39 in Calm   3.0 mph 38 % 0.00 in 7 W/m2
18:26 53.8 °F 30.0 °F 30.39 in Calm   2.0 mph 40 % 0.00 in 0 W/m2
18:31 53.4 °F 29.1 °F 30.39 in Calm   1.0 mph 39 % 0.00 in 0 W/m2
18:36 52.9 °F 29.8 °F 30.39 in Calm     41 % 0.00 in 0 W/m2
18:41 52.5 °F 30.1 °F 30.39 in Calm     42 % 0.00 in 0 W/m2
18:46 52.0 °F 30.2 °F 30.39 in Calm     43 % 0.00 in 0 W/m2
18:51 51.4 °F 30.8 °F 30.40 in Calm     45 % 0.00 in 0 W/m2
18:56 51.1 °F 30.5 °F 30.40 in Calm     45 % 0.00 in 0 W/m2
19:01 50.5 °F 30.5 °F 30.40 in Calm     46 % 0.00 in 0 W/m2
19:06 50.4 °F 31.4 °F 30.40 in Calm     48 % 0.00 in 0 W/m2
19:11 49.8 °F 32.4 °F 30.40 in Calm     51 % 0.00 in 0 W/m2
19:16 49.3 °F 31.9 °F 30.40 in Calm     51 % 0.00 in 0 W/m2
19:21 48.7 °F 31.9 °F 30.40 in Calm     52 % 0.00 in 0 W/m2
19:26 48.4 °F 33.4 °F 30.40 in Calm     56 % 0.00 in 0 W/m2
19:31 47.8 °F 33.3 °F 30.40 in Calm     57 % 0.00 in 0 W/m2
19:36 47.5 °F 33.9 °F 30.40 in Calm     59 % 0.00 in 0 W/m2
19:41 46.9 °F 33.8 °F 30.40 in Calm     60 % 0.00 in 0 W/m2
19:46 46.2 °F 33.9 °F 30.40 in Calm     62 % 0.00 in 0 W/m2
19:51 45.9 °F 33.6 °F 30.40 in Calm     62 % 0.00 in 0 W/m2
19:56 45.5 °F 33.6 °F 30.40 in Calm     63 % 0.00 in 0 W/m2
20:01 45.1 °F 33.7 °F 30.40 in Calm     64 % 0.00 in 0 W/m2
20:06 45.0 °F 33.5 °F 30.41 in Calm     64 % 0.00 in 0 W/m2
20:11 44.6 °F 33.9 °F 30.41 in Calm     66 % 0.00 in 0 W/m2
20:16 44.2 °F 34.0 °F 30.41 in Calm   2.0 mph 67 % 0.00 in 0 W/m2
20:21 44.1 °F 33.0 °F 30.41 in Calm   4.0 mph 65 % 0.00 in 0 W/m2
20:26 44.1 °F 32.7 °F 30.40 in ENE 1.0 mph 4.0 mph 64 % 0.00 in 0 W/m2
20:31 44.1 °F 33.0 °F 30.41 in Calm   3.0 mph 65 % 0.00 in 0 W/m2
20:36 43.9 °F 32.9 °F 30.41 in Calm     65 % 0.00 in 0 W/m2
20:41 43.9 °F 32.9 °F 30.41 in Calm     65 % 0.00 in 0 W/m2
20:46 43.5 °F 32.5 °F 30.41 in Calm     65 % 0.00 in 0 W/m2
20:52 43.3 °F 32.7 °F 30.41 in Calm     66 % 0.00 in 0 W/m2
20:57 43.2 °F 32.6 °F 30.41 in Calm     66 % 0.00 in 0 W/m2
21:02 43.0 °F 32.4 °F 30.40 in Calm     66 % 0.00 in 0 W/m2
21:07 42.6 °F 32.8 °F 30.40 in Calm     68 % 0.00 in 0 W/m2
21:12 42.3 °F 32.8 °F 30.40 in Calm     69 % 0.00 in 0 W/m2
21:17 42.1 °F 33.0 °F 30.40 in Calm     70 % 0.00 in 0 W/m2
21:22 41.7 °F 33.0 °F 30.41 in Calm     71 % 0.00 in 0 W/m2
21:27 41.4 °F 33.0 °F 30.41 in Calm     72 % 0.00 in 0 W/m2
21:32 41.2 °F 32.8 °F 30.41 in Calm     72 % 0.00 in 0 W/m2
21:37 40.8 °F 32.8 °F 30.40 in Calm     73 % 0.00 in 0 W/m2
21:42 40.5 °F 32.5 °F 30.40 in Calm     73 % 0.00 in 0 W/m2
21:47 40.3 °F 32.6 °F 30.40 in Calm     74 % 0.00 in 0 W/m2
21:52 40.3 °F 33.0 °F 30.40 in Calm     75 % 0.00 in 0 W/m2
21:57 39.9 °F 32.6 °F 30.40 in Calm     75 % 0.00 in 0 W/m2
22:02 39.7 °F 32.5 °F 30.40 in Calm     75 % 0.00 in 0 W/m2
22:07 39.4 °F 32.4 °F 30.40 in Calm     76 % 0.00 in 0 W/m2
22:12 39.2 °F 31.9 °F 30.40 in Calm     75 % 0.00 in 0 W/m2
22:17 39.0 °F 32.1 °F 30.40 in Calm     76 % 0.00 in 0 W/m2
22:22 38.8 °F 31.9 °F 30.40 in Calm     76 % 0.00 in 0 W/m2
22:27 38.7 °F 32.1 °F 30.40 in Calm     77 % 0.00 in 0 W/m2
22:32 38.5 °F 32.2 °F 30.40 in Calm     78 % 0.00 in 0 W/m2
22:37 38.3 °F 31.7 °F 30.40 in Calm     77 % 0.00 in 0 W/m2
22:42 38.1 °F 31.9 °F 30.39 in Calm     78 % 0.00 in 0 W/m2
22:47 37.8 °F 31.5 °F 30.39 in Calm     78 % 0.00 in 0 W/m2
22:48 37.8 °F 31.5 °F 30.39 in Calm     78 % 0.00 in 0 W/m2
22:53 37.6 °F 31.7 °F 30.39 in Calm     79 % 0.00 in 0 W/m2
22:58 37.4 °F 31.5 °F 30.40 in Calm     79 % 0.00 in 0 W/m2
23:03 37.2 °F 31.3 °F 30.40 in Calm   1.0 mph 79 % 0.00 in 0 W/m2
23:08 37.0 °F 31.1 °F 30.40 in Calm   1.0 mph 79 % 0.00 in 0 W/m2
23:13 36.9 °F 31.0 °F 30.40 in Calm     79 % 0.00 in 0 W/m2
23:18 36.9 °F 31.0 °F 30.40 in Calm     79 % 0.00 in 0 W/m2
23:23 36.7 °F 30.8 °F 30.40 in Calm     79 % 0.00 in 0 W/m2
23:28 36.5 °F 30.6 °F 30.40 in Calm     79 % 0.00 in 0 W/m2
23:33 36.3 °F 30.7 °F 30.40 in Calm     80 % 0.00 in 0 W/m2
23:38 36.1 °F 30.9 °F 30.40 in Calm     81 % 0.00 in 0 W/m2
23:43 36.1 °F 30.9 °F 30.40 in Calm     81 % 0.00 in 0 W/m2
23:48 36.0 °F 30.7 °F 30.40 in Calm     81 % 0.00 in 0 W/m2
23:53 35.8 °F 30.5 °F 30.40 in Calm     81 % 0.00 in 0 W/m2
23:58 35.6 °F 30.6 °F 30.40 in Calm     82 % 0.00 in 0 W/m2
23:59 35.4 °F 30.5 °F 30.40 in Calm     82 % 0.00 in 0 W/m2
Delerius-Weather
Compliments of Weather Underground - 2.25 mb

Data updates at regular intervals.